Time;durP1;ratioP1;P1;durP2;ratioP2;P2;SDS_P1;SDS_P2;PMS_P1;PMS_P2;Temp;Humidity;BMP_temperature;BMP_pressure;BME280_temperature;BME280_humidity;BME280_pressure;Samples;Min_cycle;Max_cycle;Signal;HPM_P1;HPM_P2
2022/08/06 00:00:10;;;;;;;1.17;1.17;;;29.20;53.50;;;;;;5076495;28;20504;-68
2022/08/06 00:02:42;;;;;;;1.10;1.00;;;29.10;53.60;;;;;;5063535;28;20899;-68
2022/08/06 00:05:13;;;;;;;0.80;0.80;;;29.10;51.20;;;;;;5061759;28;20458;-67
2022/08/06 00:07:52;;;;;;;1.10;1.00;;;28.80;51.20;;;;;;5061165;28;20456;-68
2022/08/06 00:10:23;;;;;;;0.80;0.80;;;28.80;51.20;;;;;;5062933;28;20451;-68
2022/08/06 00:12:59;;;;;;;0.60;0.60;;;28.70;51.60;;;;;;5082245;28;20800;-68
2022/08/06 00:15:34;;;;;;;0.77;0.77;;;28.60;51.50;;;;;;5077059;28;20451;-68
2022/08/06 00:18:26;;;;;;;1.10;1.00;;;28.60;52.00;;;;;;5082310;28;20505;-68
2022/08/06 00:20:57;;;;;;;1.17;1.17;;;28.50;52.40;;;;;;5085122;28;20459;-68
2022/08/06 00:23:29;;;;;;;0.93;0.90;;;28.60;53.30;;;;;;5069722;28;20945;-68
2022/08/06 00:26:20;;;;;;;1.57;0.93;;;28.40;51.30;;;;;;5062480;28;20479;-70
2022/08/06 00:28:57;;;;;;;0.80;0.80;;;28.40;51.20;;;;;;5065025;28;21090;-71
2022/08/06 00:31:29;;;;;;;1.20;1.10;;;28.40;52.70;;;;;;5065406;28;20962;-69
2022/08/06 00:34:03;;;;;;;0.90;0.90;;;28.40;53.20;;;;;;5067441;28;20473;-69
2022/08/06 00:36:36;;;;;;;1.10;1.00;;;28.40;52.50;;;;;;5066897;28;20463;-68
2022/08/06 00:39:08;;;;;;;0.80;0.80;;;28.30;53.20;;;;;;5065493;28;20456;-70
2022/08/06 00:41:42;;;;;;;1.37;1.27;;;28.20;53.60;;;;;;5062144;28;20506;-71
2022/08/06 00:44:15;;;;;;;0.80;0.80;;;28.20;53.70;;;;;;5085161;28;20455;-73
2022/08/06 00:47:00;;;;;;;2.70;1.20;;;28.10;53.20;;;;;;5063818;28;20597;-72
2022/08/06 00:49:52;;;;;;;0.87;0.83;;;27.90;55.10;;;;;;5064328;28;20577;-73
2022/08/06 00:52:23;;;;;;;1.33;1.20;;;27.90;55.40;;;;;;5068078;28;20456;-67
2022/08/06 00:54:55;;;;;;;1.17;1.07;;;27.90;55.20;;;;;;5057638;28;20548;-68
2022/08/06 00:57:28;;;;;;;1.37;1.10;;;27.80;54.70;;;;;;5069424;28;20475;-68
2022/08/06 00:59:59;;;;;;;0.93;0.90;;;27.90;55.00;;;;;;5065665;28;20478;-68
2022/08/06 01:02:31;;;;;;;1.20;1.10;;;27.80;55.70;;;;;;5064394;28;20479;-70
2022/08/06 01:05:05;;;;;;;1.13;1.07;;;27.80;55.70;;;;;;5065347;28;20459;-70
2022/08/06 01:07:55;;;;;;;0.97;0.97;;;27.80;55.10;;;;;;5062888;28;20459;-68
2022/08/06 01:10:29;;;;;;;1.30;1.20;;;27.80;55.50;;;;;;5081550;28;20493;-68
2022/08/06 01:13:12;;;;;;;0.90;0.90;;;27.70;55.80;;;;;;5067989;28;20498;-68
2022/08/06 01:16:04;;;;;;;1.30;1.20;;;27.50;55.50;;;;;;5075862;28;20600;-68
2022/08/06 01:18:46;;;;;;;1.50;1.40;;;27.50;56.20;;;;;;5061017;28;20468;-68
2022/08/06 01:21:58;;;;;;;1.30;1.20;;;27.40;56.40;;;;;;5053811;28;20470;-69
2022/08/06 01:25:11;;;;;;;1.07;0.97;;;27.20;56.10;;;;;;5069739;28;20458;-67
2022/08/06 01:27:53;;;;;;;1.33;1.23;;;27.10;56.00;;;;;;5073804;28;20455;-68
2022/08/06 01:30:31;;;;;;;1.20;1.10;;;27.00;55.90;;;;;;5066336;28;20493;-69
2022/08/06 01:33:11;;;;;;;1.00;0.80;;;26.90;55.80;;;;;;5068323;28;20446;-68
2022/08/06 01:35:58;;;;;;;1.03;0.80;;;26.80;55.40;;;;;;5073057;28;20464;-71
2022/08/06 01:38:35;;;;;;;1.10;1.00;;;26.70;56.40;;;;;;5060676;28;20489;-67
2022/08/06 01:41:38;;;;;;;1.03;0.93;;;26.70;55.50;;;;;;5061528;28;20522;-68
2022/08/06 01:44:35;;;;;;;0.73;0.73;;;26.60;55.30;;;;;;5070708;28;20486;-68
2022/08/06 01:47:12;;;;;;;0.90;0.90;;;26.40;56.00;;;;;;5063191;28;20451;-67
2022/08/06 01:49:49;;;;;;;1.00;1.00;;;26.40;56.20;;;;;;5052544;28;20517;-67
2022/08/06 01:52:38;;;;;;;1.10;1.00;;;26.40;54.70;;;;;;5062175;28;20777;-67
2022/08/06 01:55:12;;;;;;;1.43;1.10;;;26.30;54.60;;;;;;5083912;28;20533;-67
2022/08/06 01:57:51;;;;;;;0.90;0.73;;;26.20;55.00;;;;;;5065218;28;20462;-67
2022/08/06 02:00:47;;;;;;;0.93;0.87;;;26.00;54.30;;;;;;5063008;28;20781;-67
2022/08/06 02:03:23;;;;;;;0.70;0.67;;;25.90;55.20;;;;;;5078720;28;20454;-67
2022/08/06 02:05:56;;;;;;;1.27;0.80;;;25.80;54.50;;;;;;5068927;28;20456;-68
2022/08/06 02:08:31;;;;;;;1.03;0.93;;;25.80;54.10;;;;;;5070232;28;20473;-68
2022/08/06 02:11:11;;;;;;;1.10;0.80;;;25.70;55.30;;;;;;5064511;28;20994;-67
2022/08/06 02:14:04;;;;;;;1.10;0.97;;;25.60;55.60;;;;;;5072764;28;20567;-68
2022/08/06 02:16:42;;;;;;;0.97;0.93;;;25.60;56.40;;;;;;5064243;28;20483;-66
2022/08/06 02:19:15;;;;;;;1.17;1.07;;;25.60;55.90;;;;;;5063390;28;20469;-67
2022/08/06 02:22:02;;;;;;;1.53;1.43;;;25.50;55.60;;;;;;5064970;28;20449;-69
2022/08/06 02:24:36;;;;;;;2.67;2.47;;;25.50;56.20;;;;;;5068419;28;20456;-67
2022/08/06 02:27:10;;;;;;;19.50;17.73;;;25.40;57.40;;;;;;5062082;28;20458;-67
2022/08/06 02:29:47;;;;;;;1.00;1.00;;;25.50;57.60;;;;;;5064148;28;20546;-68
2022/08/06 02:32:37;;;;;;;2.27;2.07;;;25.40;57.20;;;;;;5063728;28;20507;-68
2022/08/06 02:35:12;;;;;;;1.70;1.60;;;25.40;56.80;;;;;;5082300;28;20483;-67
2022/08/06 02:37:49;;;;;;;2.63;2.17;;;25.20;57.00;;;;;;5069194;28;20474;-68
2022/08/06 02:40:37;;;;;;;1.20;1.00;;;25.10;57.60;;;;;;5068977;28;20456;-68
2022/08/06 02:43:14;;;;;;;0.90;0.90;;;25.10;58.10;;;;;;5076179;28;20466;-65
2022/08/06 02:45:57;;;;;;;1.20;1.10;;;25.00;57.80;;;;;;5065470;28;20455;-67
2022/08/06 02:48:34;;;;;;;1.03;0.90;;;24.90;57.90;;;;;;5063648;28;20460;-67
2022/08/06 02:51:11;;;;;;;0.67;0.67;;;24.80;58.10;;;;;;5062181;28;20598;-67
2022/08/06 02:54:06;;;;;;;1.07;0.67;;;24.70;58.20;;;;;;5061145;28;20451;-67
2022/08/06 02:56:46;;;;;;;0.63;0.63;;;24.60;58.20;;;;;;5069609;28;20505;-67
2022/08/06 02:59:30;;;;;;;0.87;0.87;;;24.50;58.50;;;;;;5062698;28;20499;-66
2022/08/06 03:02:11;;;;;;;0.70;0.70;;;24.50;59.10;;;;;;5062826;28;20467;-65
2022/08/06 03:04:49;;;;;;;0.60;0.60;;;24.30;59.20;;;;;;5063571;28;20494;-68
2022/08/06 03:07:28;;;;;;;0.90;0.80;;;24.30;59.60;;;;;;5070585;28;20456;-67
2022/08/06 03:10:02;;;;;;;0.70;0.70;;;24.20;59.70;;;;;;5067514;28;20545;-66
2022/08/06 03:12:42;;;;;;;0.90;0.80;;;24.10;60.10;;;;;;5064357;28;20461;-68
2022/08/06 03:15:17;;;;;;;1.03;0.70;;;24.00;60.50;;;;;;5063426;28;20462;-70
2022/08/06 03:18:09;;;;;;;1.63;0.63;;;24.00;60.30;;;;;;5049675;28;20498;-69
2022/08/06 03:20:43;;;;;;;0.70;0.70;;;23.90;61.30;;;;;;5060343;28;20499;-68
2022/08/06 03:23:18;;;;;;;0.90;0.90;;;23.80;61.60;;;;;;5055644;28;20841;-69
2022/08/06 03:25:52;;;;;;;0.80;0.60;;;23.80;61.80;;;;;;5062713;28;20463;-67
2022/08/06 03:28:23;;;;;;;0.70;0.70;;;23.70;62.30;;;;;;5064876;28;20794;-68
2022/08/06 03:30:55;;;;;;;1.80;0.70;;;23.60;62.10;;;;;;5067798;28;20847;-68
2022/08/06 03:33:27;;;;;;;1.00;0.80;;;23.50;63.00;;;;;;5079722;28;20444;-67
2022/08/06 03:36:20;;;;;;;1.53;1.03;;;23.50;62.90;;;;;;5050291;28;20499;-68
2022/08/06 03:38:59;;;;;;;0.53;0.50;;;23.40;63.20;;;;;;5062238;28;20444;-69
2022/08/06 03:41:35;;;;;;;1.97;1.07;;;23.40;62.90;;;;;;5065261;28;20491;-68
2022/08/06 03:44:09;;;;;;;0.73;0.73;;;23.40;63.20;;;;;;5062696;28;20769;-68
2022/08/06 03:46:45;;;;;;;0.80;0.80;;;23.20;63.60;;;;;;5065767;28;20524;-68
2022/08/06 03:49:23;;;;;;;0.57;0.57;;;23.10;64.30;;;;;;5076068;28;20451;-67
2022/08/06 03:52:13;;;;;;;1.00;0.67;;;23.00;65.00;;;;;;5063899;28;20560;-68
2022/08/06 03:54:49;;;;;;;0.80;0.80;;;23.00;64.90;;;;;;5070565;28;20513;-68
2022/08/06 03:57:24;;;;;;;0.83;0.80;;;22.90;65.50;;;;;;5070537;28;20458;-68
2022/08/06 04:00:00;;;;;;;0.90;0.80;;;22.80;65.60;;;;;;5054828;28;20480;-68
2022/08/06 04:02:37;;;;;;;1.30;0.93;;;22.80;65.90;;;;;;5068108;28;20463;-68
2022/08/06 04:05:20;;;;;;;1.03;0.70;;;22.70;66.10;;;;;;5063636;28;20834;-68
2022/08/06 04:07:55;;;;;;;1.10;1.00;;;22.70;66.10;;;;;;5062072;28;20448;-68
2022/08/06 04:10:28;;;;;;;0.80;0.80;;;22.70;66.00;;;;;;5061500;28;20538;-68
2022/08/06 04:13:07;;;;;;;1.10;1.00;;;22.50;66.60;;;;;;5046551;28;20519;-67
2022/08/06 04:15:58;;;;;;;0.60;0.60;;;22.50;67.80;;;;;;5072448;28;20505;-68
2022/08/06 04:18:34;;;;;;;1.10;0.80;;;22.30;67.90;;;;;;5054617;28;20475;-68
2022/08/06 04:21:16;;;;;;;1.23;0.90;;;22.30;68.20;;;;;;5057607;28;20475;-68
2022/08/06 04:24:08;;;;;;;1.30;0.90;;;22.20;68.10;;;;;;5062008;28;20466;-68
2022/08/06 04:26:43;;;;;;;0.83;0.83;;;22.20;68.90;;;;;;5064273;28;20449;-67
2022/08/06 04:29:19;;;;;;;1.03;1.00;;;22.10;69.20;;;;;;5061195;28;20472;-69
2022/08/06 04:31:53;;;;;;;0.90;0.90;;;22.00;69.50;;;;;;5062053;28;20488;-67
2022/08/06 04:34:44;;;;;;;0.83;0.83;;;22.00;70.40;;;;;;5061673;28;20539;-68
2022/08/06 04:37:35;;;;;;;0.70;0.70;;;21.90;70.40;;;;;;5061302;28;20456;-68
2022/08/06 04:40:13;;;;;;;0.93;0.83;;;21.80;71.10;;;;;;5063413;28;20463;-68
2022/08/06 04:43:06;;;;;;;1.17;0.80;;;21.80;71.80;;;;;;5059249;28;20487;-68
2022/08/06 04:45:38;;;;;;;0.90;0.90;;;21.70;72.30;;;;;;5065368;28;21028;-67
2022/08/06 04:48:30;;;;;;;1.30;1.10;;;21.60;73.30;;;;;;5067892;28;20448;-68
2022/08/06 04:51:09;;;;;;;1.00;0.90;;;21.50;73.70;;;;;;5079037;28;20497;-67
2022/08/06 04:54:00;;;;;;;0.83;0.83;;;21.40;75.00;;;;;;5056069;28;20419;-67
2022/08/06 04:56:34;;;;;;;2.57;1.07;;;21.30;75.20;;;;;;5067739;28;20524;-68
2022/08/06 04:59:07;;;;;;;1.60;1.50;;;21.20;75.70;;;;;;5069573;28;20811;-67
2022/08/06 05:01:39;;;;;;;1.03;0.93;;;21.20;76.50;;;;;;5059714;28;20566;-67
2022/08/06 05:04:30;;;;;;;1.30;1.20;;;21.20;77.10;;;;;;5061773;28;20498;-67
2022/08/06 05:07:08;;;;;;;1.40;1.30;;;21.20;77.90;;;;;;5064047;28;20466;-66
2022/08/06 05:09:42;;;;;;;1.43;1.17;;;21.20;78.00;;;;;;5065397;28;20447;-66
2022/08/06 05:12:29;;;;;;;1.03;0.93;;;21.20;78.70;;;;;;5063891;28;20570;-66
2022/08/06 05:15:04;;;;;;;1.37;1.27;;;21.10;78.60;;;;;;5054039;28;20932;-66
2022/08/06 05:17:42;;;;;;;1.43;1.30;;;21.10;78.90;;;;;;5059721;28;20447;-66
2022/08/06 05:20:19;;;;;;;1.30;1.13;;;21.00;79.80;;;;;;5065334;28;20447;-66
2022/08/06 05:23:03;;;;;;;1.50;1.40;;;21.00;80.30;;;;;;5064395;28;20448;-66
2022/08/06 05:25:49;;;;;;;1.10;1.00;;;21.00;80.50;;;;;;5075007;28;20477;-66
2022/08/06 05:28:27;;;;;;;1.47;1.37;;;21.00;80.50;;;;;;5069683;28;20517;-66
2022/08/06 05:30:58;;;;;;;1.23;1.00;;;21.00;80.90;;;;;;5064454;28;20468;-66
2022/08/06 05:33:30;;;;;;;1.67;1.00;;;21.00;81.00;;;;;;5064865;28;20978;-67
2022/08/06 05:36:07;;;;;;;1.30;1.20;;;21.10;81.40;;;;;;5062205;28;20486;-66
2022/08/06 05:38:42;;;;;;;0.90;0.90;;;21.00;82.10;;;;;;5064442;28;20537;-67
2022/08/06 05:41:29;;;;;;;1.37;1.27;;;20.90;82.80;;;;;;5074040;28;20463;-66
2022/08/06 05:44:08;;;;;;;1.40;1.30;;;20.80;83.50;;;;;;5063544;28;20500;-66
2022/08/06 05:46:43;;;;;;;1.30;1.20;;;20.80;84.00;;;;;;5071337;28;20484;-65
2022/08/06 05:49:19;;;;;;;1.20;1.10;;;20.70;84.50;;;;;;5048403;28;20442;-66
2022/08/06 05:52:15;;;;;;;1.00;1.00;;;20.70;85.20;;;;;;5062871;28;20514;-65
2022/08/06 05:54:51;;;;;;;1.00;1.00;;;20.60;85.70;;;;;;5066985;28;20959;-65
2022/08/06 05:57:30;;;;;;;1.33;1.13;;;20.60;86.30;;;;;;5069935;28;20664;-66
2022/08/06 06:00:13;;;;;;;1.67;1.57;;;20.60;86.50;;;;;;5063750;28;20578;-65
2022/08/06 06:03:06;;;;;;;1.63;1.20;;;20.60;86.50;;;;;;5059454;28;20498;-65
2022/08/06 06:05:54;;;;;;;1.33;1.23;;;20.50;86.90;;;;;;5065032;28;20448;-65
2022/08/06 06:08:45;;;;;;;1.80;1.40;;;20.40;87.90;;;;;;5064660;28;20513;-66
2022/08/06 06:11:28;;;;;;;2.63;1.67;;;20.40;88.10;;;;;;5063854;28;20484;-67
2022/08/06 06:14:42;;;;;;;1.40;1.30;;;20.40;88.50;;;;;;5064303;28;20456;-66
2022/08/06 06:17:40;;;;;;;1.03;1.03;;;20.40;88.80;;;;;;5062087;28;20443;-65
2022/08/06 06:20:21;;;;;;;1.77;1.67;;;20.30;89.40;;;;;;5064247;28;20452;-66
2022/08/06 06:23:17;;;;;;;1.43;1.33;;;20.30;90.00;;;;;;5063839;28;20444;-67
2022/08/06 06:26:03;;;;;;;1.67;1.57;;;20.20;90.20;;;;;;5063963;28;20868;-66
2022/08/06 06:28:43;;;;;;;2.07;1.63;;;20.20;90.50;;;;;;5061705;28;20468;-66
2022/08/06 06:31:26;;;;;;;2.97;1.40;;;20.20;90.70;;;;;;5066028;28;20464;-67
2022/08/06 06:34:23;;;;;;;1.50;1.40;;;20.10;90.90;;;;;;5073280;28;20505;-67
2022/08/06 06:36:59;;;;;;;1.57;1.13;;;20.00;91.30;;;;;;5072518;28;20486;-66
2022/08/06 06:39:35;;;;;;;2.13;1.30;;;19.90;91.70;;;;;;5055283;28;20443;-67
2022/08/06 06:42:13;;;;;;;1.83;1.67;;;19.90;91.90;;;;;;5062252;28;20439;-66
2022/08/06 06:45:13;;;;;;;1.43;1.10;;;19.80;92.30;;;;;;5056810;28;20509;-66
2022/08/06 06:48:09;;;;;;;4.87;1.67;;;19.80;92.50;;;;;;5064817;28;20478;-66
2022/08/06 06:50:46;;;;;;;2.50;1.27;;;19.80;92.80;;;;;;5062583;28;20471;-66
2022/08/06 06:53:19;;;;;;;1.60;1.50;;;19.70;93.20;;;;;;5069129;28;20487;-66
2022/08/06 06:55:55;;;;;;;1.43;1.33;;;19.70;93.50;;;;;;5059141;28;20490;-66
2022/08/06 06:58:38;;;;;;;1.70;1.50;;;19.60;93.80;;;;;;5062798;28;21143;-66
2022/08/06 07:01:18;;;;;;;1.67;1.57;;;19.60;94.10;;;;;;5053898;28;21019;-66
2022/08/06 07:04:00;;;;;;;1.37;1.27;;;19.60;94.40;;;;;;5065115;28;20523;-66
2022/08/06 07:06:34;;;;;;;1.83;1.60;;;19.60;94.80;;;;;;5061262;28;20464;-66
2022/08/06 07:09:18;;;;;;;1.83;1.50;;;19.50;95.00;;;;;;5066006;28;20496;-66
2022/08/06 07:12:11;;;;;;;1.23;1.13;;;19.50;95.40;;;;;;5061411;28;20518;-66
2022/08/06 07:14:51;;;;;;;1.70;1.60;;;19.40;95.90;;;;;;5070346;28;20451;-66
2022/08/06 07:17:32;;;;;;;2.73;1.50;;;19.40;96.30;;;;;;5072900;28;20457;-66
2022/08/06 07:20:21;;;;;;;1.87;1.57;;;19.40;96.70;;;;;;5062226;28;20455;-66
2022/08/06 07:23:03;;;;;;;1.70;1.60;;;19.30;97.00;;;;;;5061019;28;20455;-66
2022/08/06 07:25:56;;;;;;;1.67;1.50;;;19.30;97.50;;;;;;5076058;28;20464;-67
2022/08/06 07:28:29;;;;;;;2.00;1.80;;;19.20;98.00;;;;;;5063005;28;20560;-66
2022/08/06 07:31:06;;;;;;;1.70;1.60;;;19.20;98.20;;;;;;5062102;28;20490;-66
2022/08/06 07:33:40;;;;;;;1.33;1.23;;;19.10;98.70;;;;;;5065389;28;20518;-66
2022/08/06 07:36:34;;;;;;;2.50;1.63;;;19.10;99.00;;;;;;5052833;28;20547;-66
2022/08/06 07:39:11;;;;;;;1.80;1.70;;;19.10;99.30;;;;;;5061565;28;20431;-66
2022/08/06 07:41:45;;;;;;;2.23;1.63;;;19.10;99.70;;;;;;5062122;28;20469;-66
2022/08/06 07:44:39;;;;;;;1.67;1.57;;;19.00;99.90;;;;;;5060526;28;20452;-66
2022/08/06 07:47:29;;;;;;;2.60;2.00;;;19.00;99.90;;;;;;5062591;28;20519;-66
2022/08/06 07:50:22;;;;;;;1.50;1.40;;;19.00;99.90;;;;;;5059425;28;20423;-67
2022/08/06 07:52:55;;;;;;;2.00;1.80;;;19.00;99.90;;;;;;5072081;28;20482;-66
2022/08/06 07:55:28;;;;;;;1.63;1.50;;;18.90;99.90;;;;;;5064196;28;21124;-66
2022/08/06 07:58:06;;;;;;;2.90;1.30;;;18.90;99.90;;;;;;5065216;28;20459;-66
2022/08/06 08:00:40;;;;;;;2.37;1.67;;;18.80;99.90;;;;;;5062801;28;20514;-66
2022/08/06 08:06:28;;;;;;;1.53;1.43;;;18.70;99.90;;;;;;5067183;28;20500;-66
2022/08/06 08:09:05;;;;;;;1.60;1.40;;;18.60;99.90;;;;;;5061445;28;20513;-66
2022/08/06 08:11:43;;;;;;;1.40;1.30;;;18.60;99.90;;;;;;5047335;28;21891;-66
2022/08/06 08:14:35;;;;;;;1.97;1.77;;;18.60;99.90;;;;;;5063251;28;20472;-66
2022/08/06 08:17:07;;;;;;;1.70;1.60;;;18.50;99.90;;;;;;5076591;28;20452;-66
2022/08/06 08:19:38;;;;;;;1.33;1.07;;;18.40;99.90;;;;;;5076196;28;20444;-66
2022/08/06 08:22:11;;;;;;;1.37;1.27;;;18.40;99.90;;;;;;5073185;28;20441;-66
2022/08/06 08:24:47;;;;;;;2.00;1.77;;;18.40;99.90;;;;;;5061036;28;20434;-67
2022/08/06 08:27:25;;;;;;;2.57;2.07;;;18.40;99.90;;;;;;5057456;28;20443;-67
2022/08/06 08:29:56;;;;;;;1.67;1.57;;;18.30;99.90;;;;;;5061454;28;20483;-67
2022/08/06 08:32:28;;;;;;;1.80;1.70;;;18.40;99.90;;;;;;5065040;28;20432;-66
2022/08/06 08:34:59;;;;;;;1.87;1.43;;;18.30;99.90;;;;;;5076642;28;20467;-66
2022/08/06 08:37:31;;;;;;;3.30;2.00;;;18.20;99.90;;;;;;5061111;28;20908;-67
2022/08/06 08:40:03;;;;;;;1.77;1.67;;;18.20;99.90;;;;;;5064081;28;20453;-67
2022/08/06 08:42:42;;;;;;;1.90;1.73;;;18.20;99.90;;;;;;5067725;28;20510;-67
2022/08/06 08:45:15;;;;;;;2.13;1.93;;;18.20;99.90;;;;;;5073277;28;20438;-67
2022/08/06 08:47:50;;;;;;;2.30;1.50;;;18.00;99.90;;;;;;5065407;28;21106;-67
2022/08/06 08:50:30;;;;;;;1.80;1.70;;;18.00;99.90;;;;;;5071908;28;20446;-67
2022/08/06 08:53:04;;;;;;;1.73;1.63;;;17.90;99.90;;;;;;5065133;28;20484;-67
2022/08/06 08:55:35;;;;;;;1.50;1.40;;;18.00;99.90;;;;;;5077485;28;20437;-67
2022/08/06 08:58:28;;;;;;;1.73;1.63;;;17.90;99.90;;;;;;5085049;28;20500;-67
2022/08/06 09:01:13;;;;;;;1.70;1.47;;;17.80;99.90;;;;;;5064342;28;20459;-66
2022/08/06 09:04:05;;;;;;;1.77;1.63;;;17.80;99.90;;;;;;5059604;28;20543;-66
2022/08/06 09:06:40;;;;;;;3.00;1.97;;;17.70;99.90;;;;;;5075504;28;20434;-67
2022/08/06 09:09:13;;;;;;;2.30;2.10;;;17.70;99.90;;;;;;5064752;28;20523;-68
2022/08/06 09:11:45;;;;;;;2.83;2.30;;;17.60;99.90;;;;;;5071573;28;20545;-66
2022/08/06 09:14:38;;;;;;;2.87;2.27;;;17.50;99.90;;;;;;5066438;28;20524;-66
2022/08/06 09:17:13;;;;;;;1.63;1.40;;;17.40;99.90;;;;;;5066322;28;20470;-66
2022/08/06 09:20:06;;;;;;;2.20;1.90;;;17.40;99.90;;;;;;5065472;28;20431;-66
2022/08/06 09:22:40;;;;;;;2.03;1.83;;;17.40;99.90;;;;;;5066314;28;20452;-66
2022/08/06 09:25:37;;;;;;;1.83;1.73;;;17.30;99.90;;;;;;5063943;28;20464;-65
2022/08/06 09:28:13;;;;;;;2.00;1.80;;;17.20;99.90;;;;;;5061812;28;20474;-65
2022/08/06 09:30:59;;;;;;;2.20;2.00;;;17.20;99.90;;;;;;5065939;28;20422;-67
2022/08/06 09:33:31;;;;;;;2.80;1.73;;;17.20;99.90;;;;;;5066401;28;20634;-66
2022/08/06 09:36:23;;;;;;;1.93;1.80;;;17.10;99.90;;;;;;5063137;28;20468;-66
2022/08/06 09:39:00;;;;;;;2.83;1.80;;;17.10;99.90;;;;;;5063493;28;20490;-66
2022/08/06 09:41:48;;;;;;;1.63;1.53;;;17.00;99.90;;;;;;5067116;28;20459;-66
2022/08/06 09:44:20;;;;;;;3.00;2.03;;;16.90;99.90;;;;;;5064067;28;20497;-66
2022/08/06 09:47:08;;;;;;;7.17;1.97;;;16.90;99.90;;;;;;5067964;28;20528;-66
2022/08/06 09:49:51;;;;;;;2.03;1.83;;;16.70;99.90;;;;;;5066575;28;20489;-66
2022/08/06 09:52:29;;;;;;;1.60;1.50;;;16.60;99.90;;;;;;5062920;28;20463;-66
2022/08/06 09:55:00;;;;;;;2.47;1.97;;;16.70;99.90;;;;;;5060961;28;20479;-66
2022/08/06 09:57:46;;;;;;;2.00;1.90;;;16.60;99.90;;;;;;5062811;28;20427;-66
2022/08/06 10:00:28;;;;;;;2.20;1.90;;;16.60;99.90;;;;;;5063533;28;20457;-66
2022/08/06 10:03:05;;;;;;;3.77;1.97;;;16.60;99.90;;;;;;5060979;28;20551;-66
2022/08/06 10:06:07;;;;;;;2.00;1.80;;;16.50;99.90;;;;;;5062769;28;20675;-66
2022/08/06 10:08:40;;;;;;;2.30;1.90;;;16.40;99.90;;;;;;5063592;28;21003;-66
2022/08/06 10:11:11;;;;;;;1.60;1.50;;;16.40;99.90;;;;;;5062806;28;20890;-66
2022/08/06 10:13:47;;;;;;;2.43;2.23;;;16.40;99.90;;;;;;5067231;28;20467;-66
2022/08/06 10:16:20;;;;;;;2.17;1.77;;;16.30;99.90;;;;;;5062621;28;20456;-67
2022/08/06 10:19:02;;;;;;;2.20;2.00;;;16.30;99.90;;;;;;5063596;28;20484;-66
2022/08/06 10:21:48;;;;;;;2.47;2.27;;;16.20;99.90;;;;;;5072149;28;20461;-66
2022/08/06 10:24:21;;;;;;;2.20;1.70;;;16.10;99.90;;;;;;5071652;28;20520;-66
2022/08/06 10:27:13;;;;;;;1.83;1.63;;;16.10;99.90;;;;;;5064625;28;20468;-66
2022/08/06 10:29:46;;;;;;;2.37;2.13;;;16.00;99.90;;;;;;5063806;28;20547;-66
2022/08/06 10:32:22;;;;;;;2.87;1.87;;;16.00;99.90;;;;;;5062650;28;20467;-66
2022/08/06 10:35:05;;;;;;;2.10;1.90;;;16.00;99.90;;;;;;5061937;28;20468;-66
2022/08/06 10:37:45;;;;;;;2.10;2.00;;;16.00;99.90;;;;;;5062245;28;20487;-66
2022/08/06 10:40:21;;;;;;;2.70;2.33;;;15.80;99.90;;;;;;5074368;28;20450;-66
2022/08/06 10:43:03;;;;;;;2.83;2.20;;;15.80;99.90;;;;;;5061433;28;20550;-66
2022/08/06 10:45:36;;;;;;;2.40;2.20;;;15.70;99.90;;;;;;5062044;28;20487;-66
2022/08/06 10:48:19;;;;;;;2.30;2.10;;;15.70;99.90;;;;;;5058908;28;20482;-66
2022/08/06 10:51:12;;;;;;;2.27;1.83;;;15.70;99.90;;;;;;5063069;28;20457;-66
2022/08/06 10:53:46;;;;;;;2.73;2.33;;;15.60;99.90;;;;;;5067194;28;20460;-66
2022/08/06 10:56:37;;;;;;;1.93;1.73;;;15.60;99.90;;;;;;5061018;28;20435;-66
2022/08/06 10:59:16;;;;;;;1.70;1.60;;;15.60;99.90;;;;;;5063559;28;20480;-66
2022/08/06 11:02:03;;;;;;;1.63;1.53;;;15.50;99.90;;;;;;5065025;28;20474;-66
2022/08/06 11:04:47;;;;;;;3.87;2.23;;;15.40;99.90;;;;;;5064055;28;20597;-66
2022/08/06 11:07:57;;;;;;;2.60;2.37;;;15.40;99.90;;;;;;5060615;28;20468;-66
2022/08/06 11:11:11;;;;;;;2.27;2.07;;;15.40;99.90;;;;;;5063563;28;20547;-66
2022/08/06 11:14:01;;;;;;;4.23;2.47;;;15.40;99.90;;;;;;5041320;28;20483;-66
2022/08/06 11:16:35;;;;;;;4.30;2.73;;;15.40;99.90;;;;;;5061101;28;20468;-66
2022/08/06 11:19:07;;;;;;;2.67;2.27;;;15.40;99.90;;;;;;5064873;28;20435;-66
2022/08/06 11:21:41;;;;;;;2.50;2.30;;;15.50;99.90;;;;;;5064931;28;20476;-66
2022/08/06 11:24:34;;;;;;;3.10;2.67;;;15.50;99.90;;;;;;5082915;28;20528;-66
2022/08/06 11:27:28;;;;;;;2.40;2.03;;;15.50;99.90;;;;;;5065987;28;20467;-66
2022/08/06 11:30:17;;;;;;;2.50;2.30;;;15.50;99.90;;;;;;5055592;28;20444;-66
2022/08/06 11:32:57;;;;;;;2.90;2.47;;;15.50;99.90;;;;;;5069431;28;20459;-66
2022/08/06 11:35:43;;;;;;;2.23;2.03;;;15.50;99.90;;;;;;5062095;28;20464;-67
2022/08/06 11:38:53;;;;;;;2.53;2.33;;;15.50;99.90;;;;;;5065772;28;20459;-66
2022/08/06 11:41:47;;;;;;;4.03;3.10;;;15.40;99.90;;;;;;5062564;28;20903;-66
2022/08/06 11:44:29;;;;;;;2.70;2.40;;;15.40;99.90;;;;;;5063114;28;20609;-66
2022/08/06 11:47:13;;;;;;;2.50;1.90;;;15.30;99.90;;;;;;5061533;28;20456;-66
2022/08/06 11:49:45;;;;;;;2.90;2.33;;;15.30;99.90;;;;;;5080447;28;20455;-66
2022/08/06 11:52:43;;;;;;;2.83;2.43;;;15.30;99.90;;;;;;5063195;28;20468;-66
2022/08/06 11:55:17;;;;;;;2.70;2.50;;;15.20;99.90;;;;;;5061959;28;20479;-66
2022/08/06 11:58:20;;;;;;;4.83;3.03;;;15.20;99.90;;;;;;5062193;28;20623;-66
2022/08/06 12:01:00;;;;;;;2.93;2.10;;;15.20;99.90;;;;;;5061104;28;20475;-65
2022/08/06 12:03:51;;;;;;;2.97;2.67;;;15.20;99.90;;;;;;5060433;28;20948;-65
2022/08/06 12:06:23;;;;;;;3.07;2.53;;;15.20;99.90;;;;;;5054481;28;20492;-66
2022/08/06 12:09:18;;;;;;;3.40;3.00;;;15.20;99.90;;;;;;5060872;28;20467;-66
2022/08/06 12:12:37;;;;;;;2.40;2.20;;;15.20;99.90;;;;;;5063744;28;20455;-66
2022/08/06 12:15:38;;;;;;;2.67;2.40;;;15.10;99.90;;;;;;5059954;28;20526;-66
2022/08/06 12:18:29;;;;;;;3.10;2.60;;;15.00;99.90;;;;;;5063823;28;20500;-66
2022/08/06 12:21:01;;;;;;;2.87;2.20;;;15.10;99.90;;;;;;5069811;28;20486;-66
2022/08/06 12:23:34;;;;;;;4.83;2.47;;;15.10;99.90;;;;;;5062932;28;21018;-66
2022/08/06 12:26:31;;;;;;;2.37;2.10;;;15.10;99.90;;;;;;5059347;28;20633;-66
2022/08/06 12:29:07;;;;;;;3.20;2.73;;;15.00;99.90;;;;;;5059640;28;20856;-65
2022/08/06 12:31:40;;;;;;;2.53;2.13;;;14.90;99.90;;;;;;5055100;28;20482;-66
2022/08/06 12:34:29;;;;;;;2.83;2.60;;;14.90;99.90;;;;;;5079131;28;20806;-65
2022/08/06 12:37:01;;;;;;;3.40;2.67;;;14.90;99.90;;;;;;5069551;28;20464;-66
2022/08/06 12:42:29;;;;;;;2.57;2.37;;;14.80;99.90;;;;;;5060849;28;20456;-66
2022/08/06 12:45:23;;;;;;;2.70;2.37;;;14.80;99.90;;;;;;5061886;28;20974;-65
2022/08/06 12:48:15;;;;;;;3.10;2.80;;;14.80;99.90;;;;;;5062996;28;20452;-65
2022/08/06 12:50:46;;;;;;;2.80;2.50;;;14.70;99.90;;;;;;5066170;28;20459;-66
2022/08/06 12:53:18;;;;;;;3.13;2.80;;;14.70;99.90;;;;;;5065098;28;20471;-65
2022/08/06 12:55:51;;;;;;;2.40;2.20;;;14.80;99.90;;;;;;5063333;28;20514;-66
2022/08/06 12:58:30;;;;;;;3.10;2.80;;;14.80;99.90;;;;;;5070854;28;20475;-66
2022/08/06 13:01:14;;;;;;;3.10;2.63;;;14.70;99.90;;;;;;5050579;28;20936;-66
2022/08/06 13:04:12;;;;;;;3.00;2.70;;;14.70;99.90;;;;;;5060762;28;21006;-66
2022/08/06 13:06:47;;;;;;;4.30;3.37;;;14.60;99.90;;;;;;5053782;28;20513;-65
2022/08/06 13:09:28;;;;;;;3.40;2.83;;;14.60;99.90;;;;;;5066586;28;20459;-65
2022/08/06 13:12:14;;;;;;;4.90;3.20;;;14.70;99.90;;;;;;5065581;28;20460;-65
2022/08/06 13:14:59;;;;;;;2.93;2.50;;;14.60;99.90;;;;;;5060475;28;20455;-65
2022/08/06 13:18:03;;;;;;;3.27;2.97;;;14.60;99.90;;;;;;5072901;28;20530;-65
2022/08/06 13:20:56;;;;;;;5.17;3.17;;;14.60;99.90;;;;;;5054182;28;20459;-65
2022/08/06 13:23:32;;;;;;;2.83;2.43;;;14.60;99.90;;;;;;5061066;28;20504;-65
2022/08/06 13:26:15;;;;;;;3.67;3.30;;;14.60;99.90;;;;;;5065663;28;20559;-66
2022/08/06 13:29:14;;;;;;;3.70;2.80;;;14.70;99.90;;;;;;5065963;28;20525;-66
2022/08/06 13:32:08;;;;;;;5.20;3.43;;;14.70;99.90;;;;;;5063045;28;20558;-66
2022/08/06 13:34:58;;;;;;;3.90;3.33;;;14.70;99.90;;;;;;5069097;28;20861;-66
2022/08/06 13:37:49;;;;;;;3.40;3.10;;;14.70;99.90;;;;;;5071309;28;20462;-66
2022/08/06 13:40:40;;;;;;;3.97;3.10;;;14.70;99.90;;;;;;5068632;28;20455;-66
2022/08/06 13:43:21;;;;;;;4.50;3.20;;;14.80;99.90;;;;;;5069494;28;20516;-67
2022/08/06 13:46:13;;;;;;;4.43;3.30;;;14.80;99.90;;;;;;5063313;28;20488;-65
2022/08/06 13:48:51;;;;;;;4.47;3.63;;;14.90;99.90;;;;;;5063546;28;20487;-65
2022/08/06 13:51:23;;;;;;;3.00;2.70;;;14.90;99.90;;;;;;5063176;28;20463;-65
2022/08/06 13:53:59;;;;;;;3.40;2.93;;;14.90;99.90;;;;;;5064435;28;20498;-66
2022/08/06 13:56:43;;;;;;;3.40;3.10;;;14.90;99.90;;;;;;5063620;28;20452;-65
2022/08/06 13:59:21;;;;;;;3.60;2.97;;;14.90;99.90;;;;;;5065331;28;20545;-66
2022/08/06 14:02:09;;;;;;;3.50;2.90;;;14.90;99.90;;;;;;5061081;28;20510;-66
2022/08/06 14:04:41;;;;;;;4.10;3.70;;;14.90;99.90;;;;;;5065341;28;20447;-67
2022/08/06 14:07:19;;;;;;;3.87;3.57;;;15.00;99.90;;;;;;5065629;28;20490;-67